Time;durP1;ratioP1;P1;durP2;ratioP2;P2;SDS_P1;SDS_P2;PMS_P1;PMS_P2;Temp;Humidity;BMP_temperature;BMP_pressure;BME280_temperature;BME280_humidity;BME280_pressure;Samples;Min_cycle;Max_cycle;Signal;HPM_P1;HPM_P2
2023/10/23 00:02:24;;;;;;;5.10;1.40;;;19.20;99.90;;;;;;7400272;19;19914;-71
2023/10/23 00:04:50;;;;;;;3.60;1.05;;;19.30;99.90;;;;;;7402136;19;20315;-71
2023/10/23 00:07:16;;;;;;;3.72;0.52;;;19.20;99.90;;;;;;7397961;19;19919;-71
2023/10/23 00:09:42;;;;;;;4.78;0.90;;;19.30;99.90;;;;;;7400867;19;19917;-74
2023/10/23 00:12:09;;;;;;;3.22;0.75;;;19.30;99.90;;;;;;7399586;19;19919;-71
2023/10/23 00:14:35;;;;;;;5.55;0.75;;;19.30;99.90;;;;;;7401549;19;19911;-72
2023/10/23 00:17:01;;;;;;;4.88;0.70;;;19.30;99.90;;;;;;7400977;19;19964;-71
2023/10/23 00:19:27;;;;;;;5.55;1.13;;;19.30;99.90;;;;;;7397595;19;19986;-72
2023/10/23 00:21:53;;;;;;;5.78;0.80;;;19.30;99.90;;;;;;7402007;19;19918;-71
2023/10/23 00:24:19;;;;;;;4.18;0.77;;;19.20;99.90;;;;;;7405622;19;19933;-71
2023/10/23 00:26:45;;;;;;;3.97;0.82;;;19.30;99.90;;;;;;7405195;19;19919;-72
2023/10/23 00:29:12;;;;;;;6.05;0.82;;;19.30;99.90;;;;;;7404277;19;19924;-71
2023/10/23 00:31:38;;;;;;;5.97;0.65;;;19.30;99.90;;;;;;7407614;19;19922;-71
2023/10/23 00:34:04;;;;;;;4.18;0.70;;;19.30;99.90;;;;;;7406394;19;20663;-72
2023/10/23 00:36:30;;;;;;;5.25;0.73;;;19.30;99.90;;;;;;7404806;19;19915;-72
2023/10/23 00:38:55;;;;;;;3.28;0.70;;;19.30;99.90;;;;;;7408971;19;19918;-71
2023/10/23 00:41:21;;;;;;;3.70;0.80;;;19.30;99.90;;;;;;7405389;19;20037;-72
2023/10/23 00:43:47;;;;;;;8.23;0.77;;;19.30;99.90;;;;;;7406194;19;20326;-71
2023/10/23 00:46:16;;;;;;;4.88;0.85;;;19.40;99.90;;;;;;7403818;19;19926;-72
2023/10/23 00:48:43;;;;;;;5.72;0.90;;;19.40;99.90;;;;;;7404908;19;19929;-72
2023/10/23 00:51:11;;;;;;;;;;;19.40;99.90;;;;;;7408284;19;19918;-72
2023/10/23 00:53:38;;;;;;;8.55;0.90;;;19.40;99.90;;;;;;7404923;19;19935;-71
2023/10/23 00:56:06;;;;;;;5.35;0.70;;;19.40;99.90;;;;;;7404816;19;19929;-71
2023/10/23 00:58:36;;;;;;;4.40;1.00;;;19.40;99.90;;;;;;7405633;19;19922;-71
2023/10/23 01:01:03;;;;;;;6.32;1.00;;;19.40;99.90;;;;;;7383610;19;19929;-72
2023/10/23 01:03:29;;;;;;;3.15;0.55;;;19.40;99.90;;;;;;7404001;19;19914;-73
2023/10/23 01:05:55;;;;;;;4.78;1.00;;;19.40;99.90;;;;;;7405668;19;20464;-72
2023/10/23 01:08:21;;;;;;;4.80;0.70;;;19.40;99.90;;;;;;7402568;19;19918;-73
2023/10/23 01:10:47;;;;;;;3.97;0.60;;;19.40;99.90;;;;;;7405436;19;20641;-73
2023/10/23 01:13:14;;;;;;;5.03;0.63;;;19.40;99.90;;;;;;7405135;19;19919;-71
2023/10/23 01:15:40;;;;;;;4.63;0.98;;;19.40;99.90;;;;;;7406527;19;19926;-71
2023/10/23 01:18:06;;;;;;;4.50;0.55;;;19.40;99.90;;;;;;7403473;19;20283;-71
2023/10/23 01:20:32;;;;;;;4.10;0.98;;;19.40;99.90;;;;;;7405614;19;19942;-71
2023/10/23 01:23:02;;;;;;;7.70;1.20;;;19.40;99.90;;;;;;7403479;19;19914;-72
2023/10/23 01:25:28;;;;;;;5.63;0.88;;;19.40;99.90;;;;;;7402453;19;19919;-71
2023/10/23 01:27:55;;;;;;;4.95;0.70;;;19.40;99.90;;;;;;7403624;19;19914;-71
2023/10/23 01:30:21;;;;;;;3.70;0.82;;;19.30;99.90;;;;;;7405088;19;19925;-70
2023/10/23 01:32:47;;;;;;;4.47;0.90;;;19.30;99.90;;;;;;7403444;19;19907;-71
2023/10/23 01:35:13;;;;;;;6.45;1.02;;;19.40;99.90;;;;;;7380177;19;19930;-71
2023/10/23 01:37:42;;;;;;;4.15;0.90;;;19.30;99.90;;;;;;7405216;19;19997;-72
2023/10/23 01:40:09;;;;;;;4.45;0.80;;;19.30;99.90;;;;;;7402379;19;19982;-71
2023/10/23 01:42:34;;;;;;;5.50;0.80;;;19.40;99.90;;;;;;7405573;19;19911;-71
2023/10/23 01:45:02;;;;;;;5.68;0.90;;;19.40;99.90;;;;;;7404386;19;20347;-71
2023/10/23 01:47:28;;;;;;;6.18;1.05;;;19.40;99.90;;;;;;7402105;19;19919;-72
2023/10/23 01:49:54;;;;;;;3.78;0.80;;;19.40;99.90;;;;;;7380385;19;19929;-71
2023/10/23 01:52:20;;;;;;;4.05;0.65;;;19.50;99.90;;;;;;7400051;19;19933;-71
2023/10/23 01:54:46;;;;;;;5.13;0.88;;;19.50;99.90;;;;;;7402279;19;19926;-71
2023/10/23 01:57:12;;;;;;;3.47;0.90;;;19.50;99.90;;;;;;7404534;19;20228;-71
2023/10/23 01:59:39;;;;;;;5.53;1.10;;;19.50;99.90;;;;;;7404913;19;19922;-72
2023/10/23 02:02:05;;;;;;;3.63;1.08;;;19.50;99.90;;;;;;7402644;19;19922;-72
2023/10/23 02:04:31;;;;;;;6.85;1.08;;;19.50;99.90;;;;;;7405602;19;19911;-72
2023/10/23 02:06:57;;;;;;;6.60;1.23;;;19.60;99.90;;;;;;7401601;19;19930;-71
2023/10/23 02:09:23;;;;;;;7.70;0.95;;;19.50;99.90;;;;;;7400136;19;20027;-71
2023/10/23 02:11:49;;;;;;;5.32;0.80;;;19.60;99.90;;;;;;7400915;19;20345;-71
2023/10/23 02:14:15;;;;;;;5.55;1.17;;;19.60;99.90;;;;;;7401937;19;19927;-71
2023/10/23 02:16:42;;;;;;;11.60;2.13;;;19.60;99.90;;;;;;7401554;19;19919;-71
2023/10/23 02:19:11;;;;;;;8.63;1.20;;;19.70;99.90;;;;;;7399744;19;20365;-72
2023/10/23 02:21:36;;;;;;;12.52;1.23;;;19.70;99.90;;;;;;7399839;19;19922;-72
2023/10/23 02:24:02;;;;;;;8.38;1.27;;;19.80;99.90;;;;;;7400441;19;19932;-71
2023/10/23 02:26:29;;;;;;;9.65;1.42;;;19.70;99.90;;;;;;7403184;19;19936;-71
2023/10/23 02:28:55;;;;;;;;;;;19.70;99.90;;;;;;7403746;19;19940;-71
2023/10/23 02:31:22;;;;;;;7.55;1.20;;;19.80;99.90;;;;;;7402775;19;19910;-72
2023/10/23 02:33:48;;;;;;;11.82;1.40;;;19.80;99.90;;;;;;7402252;19;20349;-72
2023/10/23 02:36:15;;;;;;;12.73;1.65;;;19.80;99.90;;;;;;7403264;19;20349;-72
2023/10/23 02:38:41;;;;;;;9.20;1.40;;;19.80;99.90;;;;;;7403252;19;20282;-71
2023/10/23 02:41:07;;;;;;;10.52;1.90;;;19.80;99.90;;;;;;7400414;19;19922;-71
2023/10/23 02:43:33;;;;;;;15.25;1.92;;;19.80;99.90;;;;;;7402004;19;19919;-71
2023/10/23 02:46:02;;;;;;;12.82;2.03;;;19.90;99.90;;;;;;7378803;19;19929;-71
2023/10/23 02:48:28;;;;;;;8.05;1.38;;;19.80;99.90;;;;;;7401607;19;20326;-72
2023/10/23 02:50:55;;;;;;;11.35;1.55;;;19.90;99.90;;;;;;7398592;19;20029;-73
2023/10/23 02:53:21;;;;;;;13.13;1.73;;;19.90;99.90;;;;;;7401512;19;20338;-71
2023/10/23 02:55:51;;;;;;;12.57;2.00;;;19.90;99.90;;;;;;7401774;19;19928;-71
2023/10/23 02:58:17;;;;;;;12.90;2.10;;;19.90;99.90;;;;;;7400595;19;19937;-72
2023/10/23 03:00:43;;;;;;;10.88;1.83;;;19.90;99.90;;;;;;7400826;19;19925;-72
2023/10/23 03:03:12;;;;;;;16.98;2.58;;;20.00;99.90;;;;;;7398550;19;19953;-72
2023/10/23 03:05:38;;;;;;;12.65;2.20;;;19.90;99.90;;;;;;7400968;19;19915;-71
2023/10/23 03:08:05;;;;;;;14.70;2.42;;;19.90;99.90;;;;;;7398175;19;19940;-71
2023/10/23 03:10:31;;;;;;;12.25;2.55;;;19.90;99.90;;;;;;7402620;19;19982;-72
2023/10/23 03:12:57;;;;;;;;;;;20.00;99.90;;;;;;7406136;19;19925;-71
2023/10/23 03:15:25;;;;;;;12.00;1.95;;;20.00;99.90;;;;;;7397267;19;20335;-70
2023/10/23 03:17:53;;;;;;;16.15;2.28;;;20.00;99.90;;;;;;7400449;19;19919;-71
2023/10/23 03:20:19;;;;;;;12.10;1.77;;;20.00;99.90;;;;;;7401337;19;20507;-71
2023/10/23 03:22:45;;;;;;;13.30;2.30;;;20.00;99.90;;;;;;7402987;19;19914;-71
2023/10/23 03:25:11;;;;;;;16.50;2.22;;;20.00;99.90;;;;;;7398118;19;20351;-71
2023/10/23 03:27:37;;;;;;;13.80;2.53;;;20.00;99.90;;;;;;7400858;19;19929;-72
2023/10/23 03:30:03;;;;;;;9.07;1.73;;;20.00;99.90;;;;;;7401881;19;19923;-72
2023/10/23 03:32:29;;;;;;;;;;;20.00;99.90;;;;;;7405972;19;19927;-72
2023/10/23 03:34:57;;;;;;;13.00;2.00;;;20.00;99.90;;;;;;7401695;19;19914;-72
2023/10/23 03:37:24;;;;;;;13.43;2.33;;;20.00;99.90;;;;;;7401494;19;19934;-71
2023/10/23 03:39:50;;;;;;;15.07;2.17;;;20.00;99.90;;;;;;7401528;19;19914;-71
2023/10/23 03:42:15;;;;;;;14.60;2.30;;;20.00;99.90;;;;;;7402485;19;19918;-71
2023/10/23 03:44:41;;;;;;;14.38;2.15;;;20.00;99.90;;;;;;7401980;19;20652;-72
2023/10/23 03:47:07;;;;;;;16.23;2.60;;;20.00;99.90;;;;;;7399657;19;19915;-70
2023/10/23 03:49:36;;;;;;;14.25;2.08;;;20.00;99.90;;;;;;7401790;19;19934;-72
2023/10/23 03:52:03;;;;;;;15.52;3.22;;;20.00;99.90;;;;;;7402208;19;19915;-71
2023/10/23 03:54:28;;;;;;;14.32;2.30;;;19.90;99.90;;;;;;7399832;19;19918;-71
2023/10/23 03:56:54;;;;;;;18.15;2.47;;;19.90;99.90;;;;;;7399574;19;19922;-71
2023/10/23 03:59:20;;;;;;;14.73;2.45;;;19.90;99.90;;;;;;7398850;19;19982;-71
2023/10/23 04:01:46;;;;;;;21.75;2.72;;;19.90;99.90;;;;;;7398641;19;20012;-71
2023/10/23 04:04:12;;;;;;;15.07;2.50;;;19.80;99.90;;;;;;7397834;19;19918;-71
2023/10/23 04:06:40;;;;;;;14.90;2.50;;;19.80;99.90;;;;;;7399600;19;19915;-71
2023/10/23 04:09:06;;;;;;;14.77;2.55;;;19.80;99.90;;;;;;7399632;19;19922;-71
2023/10/23 04:11:32;;;;;;;15.80;3.03;;;19.80;99.90;;;;;;7400799;19;20410;-71
2023/10/23 04:13:58;;;;;;;21.70;3.10;;;19.80;99.90;;;;;;7401155;19;19954;-71
2023/10/23 04:16:24;;;;;;;16.30;2.42;;;19.80;99.90;;;;;;7398225;19;19919;-71
2023/10/23 04:18:50;;;;;;;13.95;3.13;;;19.80;99.90;;;;;;7401991;19;19918;-71
2023/10/23 04:21:15;;;;;;;17.65;3.08;;;19.80;99.90;;;;;;7396951;19;19923;-71
2023/10/23 04:23:41;;;;;;;14.75;2.45;;;19.90;99.90;;;;;;7399741;19;19982;-72
2023/10/23 04:26:07;;;;;;;18.38;2.92;;;19.90;99.90;;;;;;7376419;19;20448;-71
2023/10/23 04:28:34;;;;;;;17.23;3.88;;;19.90;99.90;;;;;;7399077;19;19927;-71
2023/10/23 04:31:00;;;;;;;18.75;3.17;;;19.90;99.90;;;;;;7400599;19;19922;-72
2023/10/23 04:33:27;;;;;;;18.48;4.18;;;19.90;99.90;;;;;;7399608;19;19914;-72
2023/10/23 04:35:55;;;;;;;20.52;3.47;;;19.90;99.90;;;;;;7399468;19;19943;-71
2023/10/23 04:38:21;;;;;;;17.40;2.45;;;19.90;99.90;;;;;;7399788;19;19919;-71
2023/10/23 04:40:48;;;;;;;28.98;4.57;;;20.00;99.90;;;;;;7400235;19;20432;-71
2023/10/23 04:43:14;;;;;;;19.00;3.65;;;20.00;99.90;;;;;;7395477;19;19928;-71
2023/10/23 04:45:40;;;;;;;22.45;3.40;;;20.00;99.90;;;;;;7400635;19;19915;-72
2023/10/23 04:48:06;;;;;;;20.27;3.70;;;20.00;99.90;;;;;;7397517;19;20029;-71
2023/10/23 04:50:39;;;;;;;27.20;4.43;;;20.00;99.90;;;;;;7397510;19;20254;-71
2023/10/23 04:53:06;;;;;;;22.27;3.35;;;20.10;99.90;;;;;;7396486;19;19906;-71
2023/10/23 04:55:38;;;;;;;22.23;3.85;;;20.10;99.90;;;;;;7399328;19;19918;-72
2023/10/23 04:58:04;;;;;;;25.05;3.25;;;20.10;99.90;;;;;;7397628;19;20286;-72
2023/10/23 05:00:33;;;;;;;20.40;3.42;;;20.10;99.90;;;;;;7398696;19;19931;-72
2023/10/23 05:02:59;;;;;;;20.75;3.55;;;20.10;99.90;;;;;;7398073;19;19928;-71
2023/10/23 05:05:25;;;;;;;24.05;4.47;;;20.20;99.90;;;;;;7396994;19;20481;-71
2023/10/23 05:07:51;;;;;;;22.77;3.67;;;20.20;99.90;;;;;;7402794;19;19921;-72
2023/10/23 05:10:16;;;;;;;18.73;3.53;;;20.20;99.90;;;;;;7403364;19;20343;-71
2023/10/23 05:12:42;;;;;;;20.67;3.92;;;20.30;99.90;;;;;;7404329;19;19921;-73
2023/10/23 05:15:08;;;;;;;22.83;3.70;;;20.30;99.90;;;;;;7400903;19;19923;-71
2023/10/23 05:17:35;;;;;;;18.67;3.22;;;20.30;99.90;;;;;;7406008;19;19919;-72
2023/10/23 05:20:01;;;;;;;21.67;4.45;;;20.40;99.90;;;;;;7404535;19;19911;-72
2023/10/23 05:22:27;;;;;;;21.75;3.13;;;20.40;99.90;;;;;;7403756;19;20376;-71
2023/10/23 05:24:53;;;;;;;27.02;3.92;;;20.40;99.90;;;;;;7404018;19;19981;-71
2023/10/23 05:27:19;;;;;;;23.88;4.20;;;20.50;99.90;;;;;;7401940;19;19981;-72
2023/10/23 05:29:44;;;;;;;28.15;3.63;;;20.50;99.90;;;;;;7394691;19;19942;-71
2023/10/23 05:32:11;;;;;;;22.65;3.95;;;20.50;99.90;;;;;;7392644;19;20032;-72
2023/10/23 05:34:37;;;;;;;22.40;4.00;;;20.50;99.90;;;;;;7398954;19;19922;-72
2023/10/23 05:37:03;;;;;;;21.05;4.03;;;20.60;99.90;;;;;;7405058;19;19927;-72
2023/10/23 05:39:29;;;;;;;26.00;4.15;;;20.60;99.90;;;;;;7399626;19;19918;-74
2023/10/23 05:41:55;;;;;;;27.33;4.60;;;20.60;99.90;;;;;;7405075;19;19922;-73
2023/10/23 05:44:21;;;;;;;22.77;5.13;;;20.60;99.90;;;;;;7397682;19;19925;-71
2023/10/23 05:46:47;;;;;;;21.00;3.58;;;20.60;99.90;;;;;;7400078;19;20318;-72
2023/10/23 05:49:12;;;;;;;31.05;5.07;;;20.60;99.90;;;;;;7401975;19;19930;-73
2023/10/23 05:51:38;;;;;;;22.13;4.05;;;20.60;99.90;;;;;;7401299;19;20240;-72
2023/10/23 05:54:04;;;;;;;29.20;4.03;;;20.60;99.90;;;;;;7402185;19;20435;-71
2023/10/23 05:56:30;;;;;;;18.75;3.35;;;20.70;99.90;;;;;;7403118;19;19926;-72
2023/10/23 05:58:55;;;;;;;28.08;3.75;;;20.70;99.90;;;;;;7403104;19;19982;-73
2023/10/23 06:01:21;;;;;;;21.50;4.00;;;20.70;99.90;;;;;;7402127;19;19915;-72
2023/10/23 06:03:47;;;;;;;31.83;5.20;;;20.70;99.90;;;;;;7404326;19;19927;-73
2023/10/23 06:06:13;;;;;;;27.80;4.72;;;20.70;99.90;;;;;;7401180;19;19934;-72
2023/10/23 06:08:40;;;;;;;28.83;4.80;;;20.70;99.90;;;;;;7404436;19;19914;-72
2023/10/23 06:11:10;;;;;;;26.98;5.20;;;20.80;99.90;;;;;;7401598;19;19926;-72
2023/10/23 06:13:36;;;;;;;25.90;4.80;;;20.80;99.90;;;;;;7402117;19;19943;-72
2023/10/23 06:16:04;;;;;;;30.48;4.28;;;20.90;99.90;;;;;;7400629;19;19937;-72
2023/10/23 06:18:36;;;;;;;25.77;4.53;;;20.90;99.90;;;;;;7400778;19;20514;-72
2023/10/23 06:21:04;;;;;;;23.85;4.75;;;20.90;99.90;;;;;;7403119;19;19919;-72
2023/10/23 06:23:39;;;;;;;26.88;4.43;;;21.00;99.90;;;;;;7401440;19;20015;-72
2023/10/23 06:26:05;;;;;;;26.42;4.65;;;21.00;99.90;;;;;;7401561;19;19922;-71
2023/10/23 06:28:32;;;;;;;30.52;4.97;;;20.80;99.90;;;;;;7402044;19;20029;-72
2023/10/23 06:31:09;;;;;;;29.00;4.95;;;20.60;99.90;;;;;;7402492;19;20304;-72
2023/10/23 06:33:36;;;;;;;21.92;4.43;;;20.60;99.90;;;;;;7401651;19;19910;-72
2023/10/23 06:36:11;;;;;;;28.40;4.30;;;20.60;99.90;;;;;;7403348;19;19914;-73
2023/10/23 06:38:37;;;;;;;24.00;4.43;;;20.50;99.90;;;;;;7399006;19;20663;-72
2023/10/23 06:41:04;;;;;;;22.63;3.92;;;20.50;99.90;;;;;;7399272;19;20661;-71
2023/10/23 06:43:34;;;;;;;26.40;5.43;;;20.50;99.90;;;;;;7405158;19;19914;-72
2023/10/23 06:46:00;;;;;;;28.65;5.35;;;20.50;99.90;;;;;;7403434;19;19994;-72
2023/10/23 06:48:26;;;;;;;27.63;5.28;;;20.60;99.90;;;;;;7402106;19;19919;-72
2023/10/23 06:50:52;;;;;;;25.65;4.70;;;20.60;99.90;;;;;;7402378;19;19939;-72
2023/10/23 06:53:18;;;;;;;23.38;4.80;;;20.60;99.90;;;;;;7402278;19;19927;-72
2023/10/23 06:55:54;;;;;;;23.40;4.70;;;20.80;99.90;;;;;;7403731;19;19923;-72
2023/10/23 06:58:20;;;;;;;27.88;5.40;;;20.80;99.90;;;;;;7401351;19;19914;-72
2023/10/23 07:00:47;;;;;;;21.27;4.35;;;20.80;99.90;;;;;;7400680;19;19941;-71
2023/10/23 07:03:13;;;;;;;22.60;3.97;;;20.80;99.90;;;;;;7401134;19;19931;-71
2023/10/23 07:05:40;;;;;;;19.20;4.15;;;20.70;99.90;;;;;;7398592;19;19929;-71
2023/10/23 07:08:06;;;;;;;23.58;4.70;;;20.70;99.90;;;;;;7398522;19;19968;-72
2023/10/23 07:10:36;;;;;;;24.50;4.60;;;20.70;99.90;;;;;;7400851;19;19922;-72
2023/10/23 07:13:02;;;;;;;21.77;3.45;;;20.80;99.90;;;;;;7402128;19;20590;-72
2023/10/23 07:15:31;;;;;;;24.48;3.88;;;20.90;99.90;;;;;;7402015;19;20579;-72
2023/10/23 07:17:57;;;;;;;36.95;12.57;;;21.00;99.90;;;;;;7396353;19;20683;-72
2023/10/23 07:20:23;;;;;;;19.13;5.07;;;21.10;99.90;;;;;;7401276;19;19968;-72
2023/10/23 07:22:49;;;;;;;18.95;4.28;;;21.20;99.90;;;;;;7399656;19;19943;-72
2023/10/23 07:25:15;;;;;;;25.27;4.78;;;21.30;99.90;;;;;;7399359;19;19915;-72
2023/10/23 07:27:41;;;;;;;27.65;4.35;;;21.40;99.90;;;;;;7401169;19;19914;-72
2023/10/23 07:30:07;;;;;;;25.92;4.93;;;21.50;99.90;;;;;;7396890;19;19911;-72
2023/10/23 07:32:35;;;;;;;;;;;21.60;99.90;;;;;;7403483;19;19918;-73
2023/10/23 07:35:03;;;;;;;27.40;5.70;;;21.70;99.90;;;;;;7392245;19;19915;-72
2023/10/23 07:37:30;;;;;;;27.90;4.72;;;21.80;99.90;;;;;;7386766;19;19929;-72
2023/10/23 07:39:57;;;;;;;;;;;22.00;99.90;;;;;;7392445;19;20483;-72
2023/10/23 07:42:22;;;;;;;33.15;5.55;;;22.20;99.90;;;;;;7394767;19;19935;-73
2023/10/23 07:44:48;;;;;;;23.08;4.95;;;22.30;99.90;;;;;;7399581;19;19922;-72
2023/10/23 07:47:14;;;;;;;32.03;4.90;;;22.50;99.90;;;;;;7392144;19;19945;-73
2023/10/23 07:49:39;;;;;;;29.35;5.50;;;22.40;99.90;;;;;;7380215;19;19979;-73
2023/10/23 07:52:05;;;;;;;30.08;5.95;;;22.20;99.90;;;;;;7368432;19;20670;-73
2023/10/23 07:54:31;;;;;;;23.42;4.85;;;22.20;99.90;;;;;;7386194;19;19977;-73
2023/10/23 07:56:57;;;;;;;32.40;5.53;;;22.20;99.90;;;;;;7397783;19;20293;-73
2023/10/23 07:59:25;;;;;;;31.17;4.70;;;22.10;99.90;;;;;;7389068;19;19939;-73
2023/10/23 08:01:52;;;;;;;32.55;4.97;;;22.20;99.90;;;;;;7398024;19;19938;-73
2023/10/23 08:04:18;;;;;;;38.92;6.60;;;22.30;99.90;;;;;;7374466;19;19924;-72
2023/10/23 08:06:44;;;;;;;;;;;22.50;99.90;;;;;;7396069;19;20670;-72
2023/10/23 08:09:11;;;;;;;34.45;5.88;;;22.70;99.90;;;;;;7394323;19;19926;-73
2023/10/23 08:11:37;;;;;;;;;;;23.00;99.90;;;;;;7397906;19;19919;-72
2023/10/23 08:14:02;;;;;;;32.25;6.10;;;23.30;99.90;;;;;;7401101;19;19933;-73
2023/10/23 08:16:28;;;;;;;34.58;6.05;;;23.40;99.90;;;;;;7389145;19;20232;-73
2023/10/23 08:18:55;;;;;;;43.40;6.18;;;23.50;99.90;;;;;;7373381;19;19910;-73
2023/10/23 08:21:22;;;;;;;29.67;5.72;;;23.50;99.90;;;;;;7397350;19;19921;-72
2023/10/23 08:23:54;;;;;;;32.15;5.82;;;23.70;99.90;;;;;;7391053;19;19914;-73
2023/10/23 08:26:20;;;;;;;29.45;5.53;;;24.10;99.90;;;;;;7395981;19;19914;-73
2023/10/23 08:28:46;;;;;;;36.72;5.70;;;24.50;99.90;;;;;;7393991;19;19930;-73
2023/10/23 08:31:12;;;;;;;41.40;7.10;;;25.00;99.90;;;;;;7389503;19;20012;-74
2023/10/23 08:33:38;;;;;;;45.70;13.88;;;25.40;99.90;;;;;;7396585;19;19929;-74
2023/10/23 08:36:04;;;;;;;38.13;6.88;;;25.50;99.90;;;;;;7369114;19;19910;-72
2023/10/23 08:38:30;;;;;;;34.65;7.22;;;25.60;99.90;;;;;;7393819;19;19918;-72
2023/10/23 08:40:56;;;;;;;35.55;6.40;;;25.90;99.90;;;;;;7366359;19;19922;-72
2023/10/23 08:43:24;;;;;;;31.75;6.53;;;26.30;99.90;;;;;;7387109;19;20253;-73
2023/10/23 08:45:53;;;;;;;38.92;6.15;;;26.60;99.30;;;;;;7399496;19;20278;-73
2023/10/23 08:48:19;;;;;;;33.90;5.82;;;26.10;99.20;;;;;;7386038;19;19914;-72
2023/10/23 08:50:46;;;;;;;35.72;6.78;;;25.70;99.90;;;;;;7403480;19;19937;-73
2023/10/23 08:53:15;;;;;;;27.65;5.32;;;25.60;99.90;;;;;;7405309;19;20335;-72
2023/10/23 08:55:42;;;;;;;29.95;5.30;;;25.60;99.90;;;;;;7407249;19;19915;-72
2023/10/23 08:58:11;;;;;;;35.65;5.60;;;24.60;99.90;;;;;;7394866;19;19923;-72
2023/10/23 09:00:38;;;;;;;32.83;6.43;;;24.40;99.90;;;;;;7398594;19;19957;-72
2023/10/23 09:03:04;;;;;;;31.55;6.03;;;24.00;99.90;;;;;;7401551;19;19946;-71
2023/10/23 09:05:30;;;;;;;32.20;5.85;;;23.80;99.90;;;;;;7399127;19;19929;-72
2023/10/23 09:07:57;;;;;;;41.28;5.63;;;23.60;99.90;;;;;;7399280;19;19915;-73
2023/10/23 09:10:22;;;;;;;;;;;23.40;99.90;;;;;;7389862;19;19926;-72
2023/10/23 09:12:58;;;;;;;29.33;5.78;;;23.30;99.90;;;;;;7395091;19;19914;-72
2023/10/23 09:15:24;;;;;;;20.25;5.07;;;23.40;99.90;;;;;;7389941;19;19918;-73
2023/10/23 09:17:51;;;;;;;27.38;5.00;;;23.60;99.90;;;;;;7375731;19;19923;-73
2023/10/23 09:20:19;;;;;;;31.67;5.22;;;23.50;99.90;;;;;;7403047;19;20346;-72
2023/10/23 09:22:48;;;;;;;32.35;5.10;;;23.00;99.90;;;;;;7408259;19;19996;-73
2023/10/23 09:25:24;;;;;;;33.50;5.35;;;23.10;99.90;;;;;;7387830;19;19919;-74
2023/10/23 09:27:51;;;;;;;28.20;4.65;;;22.90;99.90;;;;;;7394370;19;19946;-73
2023/10/23 09:30:23;;;;;;;36.10;6.55;;;23.10;99.90;;;;;;7392497;19;19947;-72
2023/10/23 09:32:53;;;;;;;;;;;23.20;99.90;;;;;;7379691;19;19939;-72
2023/10/23 09:35:20;;;;;;;22.02;4.72;;;23.10;99.90;;;;;;7396222;19;20246;-72
2023/10/23 09:37:46;;;;;;;23.63;4.13;;;23.20;99.90;;;;;;7403273;19;19922;-73
2023/10/23 09:40:12;;;;;;;27.48;4.57;;;23.10;99.90;;;;;;7403055;19;20347;-73
2023/10/23 09:42:40;;;;;;;33.58;5.13;;;23.20;99.90;;;;;;7404095;19;20328;-72
2023/10/23 09:45:06;;;;;;;27.85;4.57;;;23.10;99.90;;;;;;7402528;19;19928;-72
2023/10/23 09:47:32;;;;;;;;;;;23.00;99.90;;;;;;7405451;19;19915;-73
2023/10/23 09:49:59;;;;;;;31.25;5.13;;;23.00;99.90;;;;;;7402991;19;19923;-73
2023/10/23 09:52:26;;;;;;;;;;;23.10;99.90;;;;;;7405688;19;20436;-72
2023/10/23 09:55:03;;;;;;;32.38;5.80;;;23.20;99.90;;;;;;7403058;19;19915;-72
2023/10/23 09:57:44;;;;;;;24.35;5.25;;;23.30;99.90;;;;;;7403643;19;19923;-71
2023/10/23 10:00:14;;;;;;;28.25;5.22;;;23.40;99.90;;;;;;7402172;19;19941;-72
2023/10/23 10:02:45;;;;;;;31.42;5.05;;;23.80;99.90;;;;;;7378237;19;20342;-73
2023/10/23 10:05:20;;;;;;;30.83;5.10;;;24.40;99.90;;;;;;7401202;19;19915;-71
2023/10/23 10:08:17;;;;;;;19.35;3.75;;;24.60;99.90;;;;;;7402626;19;19955;-73
2023/10/23 10:10:44;;;;;;;22.20;4.55;;;24.20;99.90;;;;;;7383634;19;19918;-72
2023/10/23 10:13:13;;;;;;;23.13;4.75;;;24.30;99.90;;;;;;7396371;19;20389;-73
2023/10/23 10:15:39;;;;;;;29.90;4.97;;;24.50;99.90;;;;;;7402414;19;19929;-72
2023/10/23 10:18:05;;;;;;;24.63;4.85;;;24.30;99.90;;;;;;7391276;19;19922;-72
2023/10/23 10:20:32;;;;;;;25.60;4.60;;;23.90;99.90;;;;;;7401463;19;19927;-72
2023/10/23 10:23:04;;;;;;;27.42;5.18;;;24.20;99.90;;;;;;7395891;19;20026;-72
2023/10/23 10:25:32;;;;;;;31.88;4.63;;;24.20;99.90;;;;;;7382741;19;19982;-72
2023/10/23 10:28:02;;;;;;;26.38;5.50;;;24.20;99.90;;;;;;7394001;19;20837;-70
2023/10/23 10:30:37;;;;;;;26.42;4.15;;;24.30;99.90;;;;;;7393685;19;19914;-72
2023/10/23 10:33:10;;;;;;;22.83;4.28;;;24.30;99.90;;;;;;7395582;19;19990;-71
2023/10/23 10:35:36;;;;;;;22.02;4.57;;;23.60;99.90;;;;;;7401717;19;20230;-72
2023/10/23 10:38:03;;;;;;;26.70;5.45;;;23.90;99.90;;;;;;7405129;19;19926;-72
2023/10/23 10:40:59;;;;;;;22.73;3.65;;;24.30;99.90;;;;;;7398741;19;19986;-72
2023/10/23 10:43:37;;;;;;;24.23;4.50;;;24.40;99.90;;;;;;7397569;19;19922;-71
2023/10/23 10:46:25;;;;;;;29.80;4.68;;;23.90;99.90;;;;;;7388896;19;19947;-72
2023/10/23 10:48:53;;;;;;;16.75;4.32;;;24.30;99.90;;;;;;7388777;19;19986;-72
2023/10/23 10:51:24;;;;;;;26.08;4.65;;;24.40;99.90;;;;;;7394331;19;19935;-72
2023/10/23 10:54:03;;;;;;;24.08;4.45;;;24.80;99.90;;;;;;7393737;19;20313;-72
2023/10/23 10:56:29;;;;;;;22.40;4.18;;;24.70;99.90;;;;;;7390273;19;19918;-72
2023/10/23 10:58:58;;;;;;;;;;;24.60;99.90;;;;;;7399234;19;19926;-72
2023/10/23 11:01:24;;;;;;;22.80;4.95;;;24.80;99.90;;;;;;7384295;19;19914;-72
2023/10/23 11:03:51;;;;;;;19.92;4.15;;;25.10;99.90;;;;;;7384765;19;19929;-73
2023/10/23 11:06:18;;;;;;;;;;;25.70;99.50;;;;;;7393117;19;20363;-72
2023/10/23 11:08:45;;;;;;;23.52;5.00;;;26.00;97.40;;;;;;7387431;19;20376;-71
2023/10/23 11:11:11;;;;;;;21.67;4.70;;;26.50;94.40;;;;;;7374865;19;19958;-72
2023/10/23 11:13:37;;;;;;;27.60;4.63;;;26.40;90.90;;;;;;7392291;19;20001;-72
2023/10/23 11:16:04;;;;;;;22.58;4.30;;;26.50;90.40;;;;;;7387266;19;19923;-72
2023/10/23 11:18:30;;;;;;;23.15;3.95;;;26.80;84.20;;;;;;7389209;19;19949;-72
2023/10/23 11:21:00;;;;;;;;;;;27.00;75.50;;;;;;7401009;19;19919;-73
2023/10/23 11:23:30;;;;;;;20.80;4.53;;;27.80;72.00;;;;;;7391876;19;19930;-72
2023/10/23 11:25:56;;;;;;;21.83;4.40;;;27.40;70.80;;;;;;7391101;19;19914;-72
2023/10/23 11:28:23;;;;;;;17.30;3.63;;;26.80;73.20;;;;;;7382696;19;20544;-73
2023/10/23 11:30:54;;;;;;;23.83;4.03;;;26.70;75.70;;;;;;7387854;19;19922;-73
2023/10/23 11:33:20;;;;;;;22.35;5.53;;;26.20;77.00;;;;;;7393850;19;19914;-73
2023/10/23 11:35:46;;;;;;;18.25;3.47;;;26.10;79.70;;;;;;7400867;19;19918;-72
2023/10/23 11:38:20;;;;;;;14.55;3.28;;;25.60;75.60;;;;;;7388421;19;19966;-73
2023/10/23 11:40:46;;;;;;;20.05;3.60;;;25.80;74.40;;;;;;7400134;19;19966;-71
2023/10/23 11:43:13;;;;;;;19.33;3.90;;;26.10;73.20;;;;;;7396157;19;19927;-73
2023/10/23 11:45:41;;;;;;;12.93;3.03;;;26.60;69.80;;;;;;7388892;19;20244;-73
2023/10/23 11:48:08;;;;;;;9.45;1.83;;;26.40;64.40;;;;;;7390043;19;19942;-73
2023/10/23 11:50:37;;;;;;;13.30;2.40;;;25.90;56.30;;;;;;7395417;19;19925;-72
2023/10/23 11:53:06;;;;;;;10.18;1.67;;;25.70;58.10;;;;;;7398596;19;19918;-72
2023/10/23 11:55:33;;;;;;;8.00;1.88;;;25.30;54.90;;;;;;7394135;19;19914;-71
2023/10/23 11:58:00;;;;;;;9.52;1.50;;;25.00;55.10;;;;;;7393290;19;19919;-72
2023/10/23 12:00:34;;;;;;;5.55;1.17;;;25.10;54.70;;;;;;7386614;19;25453;-72
2023/10/23 12:03:00;;;;;;;9.65;1.80;;;25.20;53.30;;;;;;7383761;19;20389;-72
2023/10/23 12:05:25;;;;;;;7.53;1.67;;;25.10;51.70;;;;;;7387911;19;20797;-72
2023/10/23 12:07:53;;;;;;;13.77;2.00;;;25.30;52.40;;;;;;7382796;19;19947;-71
2023/10/23 12:10:24;;;;;;;9.00;1.90;;;25.30;51.70;;;;;;7390767;19;19922;-72
2023/10/23 12:12:52;;;;;;;5.57;1.45;;;25.60;49.10;;;;;;7390743;19;19932;-72
2023/10/23 12:15:19;;;;;;;9.10;1.98;;;25.30;48.50;;;;;;7391443;19;19974;-73
2023/10/23 12:17:44;;;;;;;5.60;1.40;;;25.30;49.30;;;;;;7398051;19;19918;-73
2023/10/23 12:20:12;;;;;;;8.52;1.80;;;25.00;48.20;;;;;;7400058;19;19953;-73
2023/10/23 12:22:42;;;;;;;5.72;1.35;;;25.50;48.40;;;;;;7398704;19;19957;-73
2023/10/23 12:25:09;;;;;;;10.25;1.67;;;25.10;47.60;;;;;;7399861;19;19926;-71
2023/10/23 12:27:36;;;;;;;8.13;1.60;;;25.20;48.10;;;;;;7400755;19;19930;-72
2023/10/23 12:30:04;;;;;;;6.63;1.52;;;25.60;46.10;;;;;;7401666;19;19918;-72
2023/10/23 12:32:30;;;;;;;8.50;1.85;;;25.90;45.30;;;;;;7393408;19;19926;-72
2023/10/23 12:34:59;;;;;;;8.02;1.45;;;26.30;44.70;;;;;;7406618;19;19940;-72
2023/10/23 12:37:26;;;;;;;12.20;1.80;;;26.60;43.10;;;;;;7402059;19;19922;-71
2023/10/23 12:39:56;;;;;;;8.68;1.75;;;26.70;43.10;;;;;;7394426;19;19911;-72
2023/10/23 12:42:22;;;;;;;5.70;1.63;;;27.20;41.10;;;;;;7393912;19;22377;-72
2023/10/23 12:44:51;;;;;;;8.02;1.38;;;27.00;40.30;;;;;;7395430;19;19918;-72